Time;durP1;ratioP1;P1;durP2;ratioP2;P2;SDS_P1;SDS_P2;PMS_P1;PMS_P2;Temp;Humidity;BMP_temperature;BMP_pressure;BME280_temperature;BME280_humidity;BME280_pressure;Samples;Min_cycle;Max_cycle;Signal;HPM_P1;HPM_P2
2022/03/09 00:01:37;;;;;;;42.78;19.40;;;;;;;0.14;63.40;100790.91;5115453;28;20132;-72
2022/03/09 00:04:06;;;;;;;37.15;18.75;;;;;;;0.09;63.45;100797.94;5114718;28;20093;-72
2022/03/09 00:06:34;;;;;;;38.75;17.33;;;;;;;0.11;63.36;100804.94;5115152;28;20518;-72
2022/03/09 00:09:03;;;;;;;43.50;19.05;;;;;;;0.11;63.45;100798.81;5114428;28;20453;-75
2022/03/09 00:11:31;;;;;;;34.88;17.30;;;;;;;0.20;63.71;100802.22;5114923;28;20385;-72
2022/03/09 00:13:59;;;;;;;58.40;26.10;;;;;;;0.43;63.15;100799.38;5114626;28;20046;-73
2022/03/09 00:16:29;;;;;;;57.85;25.90;;;;;;;0.44;62.93;100809.00;5114515;28;20096;-72
2022/03/09 00:18:58;;;;;;;53.45;24.83;;;;;;;0.45;63.16;100802.84;5114564;28;20039;-78
2022/03/09 00:21:28;;;;;;;56.22;24.50;;;;;;;0.40;63.17;100798.56;5101057;28;20109;-72
2022/03/09 00:23:56;;;;;;;58.55;25.13;;;;;;;0.43;62.88;100798.50;5094110;28;20044;-72
2022/03/09 00:26:24;;;;;;;48.92;23.23;;;;;;;0.26;63.18;100811.78;5094261;28;20047;-72
2022/03/09 00:28:53;;;;;;;55.83;23.60;;;;;;;0.13;63.52;100811.03;5093950;28;20097;-71
2022/03/09 00:31:21;;;;;;;47.63;23.15;;;;;;;0.28;62.79;100810.00;5093599;28;20044;-70
2022/03/09 00:33:51;;;;;;;49.97;22.98;;;;;;;0.38;62.19;100806.41;5094205;28;20040;-70
2022/03/09 00:36:19;;;;;;;47.13;21.80;;;;;;;0.51;61.15;100802.81;5093707;28;20075;-70
2022/03/09 00:38:47;;;;;;;45.97;22.13;;;;;;;0.48;61.14;100791.44;5094073;28;20043;-70
2022/03/09 00:41:15;;;;;;;48.55;21.23;;;;;;;0.62;61.36;100793.94;5093650;28;20043;-70
2022/03/09 00:43:43;;;;;;;43.20;22.52;;;;;;;0.66;61.21;100796.50;5093692;28;20071;-70
2022/03/09 00:46:12;;;;;;;49.83;21.60;;;;;;;0.78;60.94;100806.03;5093580;28;20042;-70
2022/03/09 00:48:41;;;;;;;47.55;22.33;;;;;;;0.70;61.26;100797.34;5093550;28;20131;-69
2022/03/09 00:51:10;;;;;;;48.92;21.63;;;;;;;0.47;62.59;100793.19;5093179;28;20040;-70
2022/03/09 00:53:39;;;;;;;47.42;21.60;;;;;;;0.39;62.81;100792.44;5093487;28;20048;-70
2022/03/09 00:56:07;;;;;;;42.92;21.70;;;;;;;0.63;62.31;100798.31;5093392;28;20044;-71
2022/03/09 00:58:36;;;;;;;47.55;21.88;;;;;;;0.42;63.38;100796.78;5093805;28;20044;-73
2022/03/09 01:01:05;;;;;;;44.30;22.25;;;;;;;0.28;63.45;100786.41;5093173;28;20040;-71
2022/03/09 01:03:33;;;;;;;41.60;21.80;;;;;;;0.41;62.28;100774.91;5093609;28;20040;-70
2022/03/09 01:06:02;;;;;;;40.45;20.10;;;;;;;0.40;61.99;100767.94;5093259;28;20397;-72
2022/03/09 01:08:32;;;;;;;39.72;19.90;;;;;;;0.44;61.97;100768.75;5093676;28;20036;-71
2022/03/09 01:11:01;;;;;;;39.75;20.38;;;;;;;0.58;61.35;100787.88;5092547;28;20497;-78
2022/03/09 01:13:29;;;;;;;38.47;19.58;;;;;;;0.40;62.25;100795.94;5093057;28;20468;-70
2022/03/09 01:15:58;;;;;;;37.55;19.05;;;;;;;0.25;62.57;100789.06;5093165;28;20044;-71
2022/03/09 01:18:26;;;;;;;39.22;19.80;;;;;;;0.12;63.34;100782.19;5092958;28;20040;-73
2022/03/09 01:20:55;;;;;;;40.35;19.10;;;;;;;0.23;63.29;100780.34;5092667;28;20040;-73
2022/03/09 01:23:23;;;;;;;35.65;17.80;;;;;;;0.20;62.84;100786.50;5092866;28;20048;-73
2022/03/09 01:25:53;;;;;;;37.28;18.67;;;;;;;0.26;62.92;100778.53;5093252;28;20044;-73
2022/03/09 01:28:21;;;;;;;39.05;19.02;;;;;;;0.34;62.28;100788.97;5092899;28;20047;-72
2022/03/09 01:30:49;;;;;;;40.58;18.67;;;;;;;0.37;62.44;100786.31;5093425;28;20066;-72
2022/03/09 01:33:18;;;;;;;35.75;18.23;;;;;;;0.43;61.85;100788.88;5092599;28;20512;-72
2022/03/09 01:35:46;;;;;;;36.03;17.17;;;;;;;0.35;61.95;100795.97;5075299;28;20048;-72
2022/03/09 01:38:14;;;;;;;36.45;18.73;;;;;;;0.19;63.23;100795.25;5092475;28;20040;-73
2022/03/09 01:40:42;;;;;;;36.63;19.35;;;;;;;0.26;62.61;100788.16;5093010;28;20105;-73
2022/03/09 01:43:14;;;;;;;40.40;18.63;;;;;;;0.51;62.36;100787.06;5074618;28;20146;-72
2022/03/09 01:45:43;;;;;;;34.50;18.23;;;;;;;0.29;62.77;100790.78;5093298;28;20449;-73
2022/03/09 01:48:11;;;;;;;36.28;17.92;;;;;;;0.41;62.37;100793.28;5092789;28;20489;-72
2022/03/09 01:50:41;;;;;;;37.20;19.20;;;;;;;0.51;62.39;100800.19;5096527;28;20093;-72
2022/03/09 01:53:09;;;;;;;35.22;18.02;;;;;;;0.53;62.46;100795.78;5113099;28;20126;-71
2022/03/09 01:55:38;;;;;;;37.45;18.73;;;;;;;0.44;62.54;100795.00;5113526;28;20448;-71
2022/03/09 01:58:07;;;;;;;35.67;17.55;;;;;;;0.44;62.65;100790.63;5113095;28;20370;-73
2022/03/09 02:00:37;;;;;;;34.83;18.80;;;;;;;0.32;63.52;100792.50;5113257;28;20068;-72
2022/03/09 02:03:07;;;;;;;38.50;19.13;;;;;;;0.34;63.41;100794.22;5113090;28;20063;-72
2022/03/09 02:05:36;;;;;;;35.00;19.02;;;;;;;0.24;63.72;100789.94;5113317;28;20416;-72
2022/03/09 02:10:52;;;;;;;34.22;18.75;;;;;;;0.40;63.13;100788.91;5113033;28;20067;-72
2022/03/09 02:13:20;;;;;;;32.08;17.15;;;;;;;0.23;63.95;100798.72;5112656;28;20044;-71
2022/03/09 02:15:50;;;;;;;32.78;18.00;;;;;;;0.34;63.64;100791.59;5113116;28;20062;-73
2022/03/09 02:18:18;;;;;;;32.88;18.08;;;;;;;0.17;64.35;100790.88;5112971;28;20093;-72
2022/03/09 02:20:49;;;;;;;39.05;18.35;;;;;;;0.06;64.42;100792.72;5113066;28;20035;-73
2022/03/09 02:23:19;;;;;;;33.88;18.08;;;;;;;0.11;64.73;100801.44;5114810;28;20062;-73
2022/03/09 02:25:47;;;;;;;33.03;17.80;;;;;;;0.39;63.55;100808.19;5116994;28;20043;-72
2022/03/09 02:28:15;;;;;;;32.05;17.40;;;;;;;0.34;63.78;100802.09;5098326;28;20060;-73
2022/03/09 02:30:43;;;;;;;35.45;18.08;;;;;;;0.44;63.28;100806.38;5116617;28;20071;-72
2022/03/09 02:33:12;;;;;;;34.25;17.17;;;;;;;0.58;62.61;100808.88;5116547;28;20059;-73
2022/03/09 02:35:40;;;;;;;34.38;17.65;;;;;;;0.45;63.11;100792.34;5117059;28;20048;-72
2022/03/09 02:38:10;;;;;;;35.05;18.02;;;;;;;0.37;63.26;100794.19;5116176;28;20044;-72
2022/03/09 02:40:40;;;;;;;33.20;18.13;;;;;;;0.45;63.02;100802.84;5116681;28;20086;-72
2022/03/09 02:43:09;;;;;;;33.92;17.63;;;;;;;0.34;63.19;100802.09;5116480;28;20051;-74
2022/03/09 02:45:37;;;;;;;33.00;17.15;;;;;;;0.17;63.56;100802.25;5116332;28;20067;-73
2022/03/09 02:48:05;;;;;;;35.20;17.77;;;;;;;0.05;64.46;100793.63;5098184;28;20047;-72
2022/03/09 02:50:34;;;;;;;33.38;17.52;;;;;;;-0.06;65.07;100798.97;5116591;28;20047;-74
2022/03/09 02:53:02;;;;;;;34.22;16.95;;;;;;;-0.10;64.90;100802.47;5116433;28;20047;-72
2022/03/09 02:55:30;;;;;;;31.27;16.67;;;;;;;0.09;63.60;100787.44;5116437;28;20035;-72
2022/03/09 02:58:00;;;;;;;31.38;16.92;;;;;;;0.18;63.10;100783.00;5116375;28;20412;-71
2022/03/09 03:00:28;;;;;;;30.50;16.30;;;;;;;0.13;63.26;100783.94;5115980;28;20056;-72
2022/03/09 03:02:57;;;;;;;29.52;15.40;;;;;;;0.21;62.13;100787.38;5116360;28;20043;-72
2022/03/09 03:05:25;;;;;;;36.17;16.95;;;;;;;0.18;62.84;100782.13;5115627;28;20047;-72
2022/03/09 03:07:54;;;;;;;30.95;16.45;;;;;;;-0.03;63.55;100781.44;5116180;28;20044;-73
2022/03/09 03:10:22;;;;;;;34.22;16.42;;;;;;;-0.05;63.76;100779.72;5115882;28;20035;-73
2022/03/09 03:12:50;;;;;;;32.45;16.20;;;;;;;0.20;62.90;100776.00;5115856;28;20035;-72
2022/03/09 03:15:20;;;;;;;28.70;14.98;;;;;;;0.30;62.76;100770.66;5115535;28;20456;-73
2022/03/09 03:17:48;;;;;;;31.52;15.98;;;;;;;0.34;62.43;100783.72;5115971;28;20051;-72
2022/03/09 03:20:17;;;;;;;30.23;16.60;;;;;;;0.07;63.63;100783.97;5115653;28;20074;-73
2022/03/09 03:22:48;;;;;;;34.38;15.80;;;;;;;0.18;63.59;100776.88;5116021;28;20423;-71
2022/03/09 03:25:18;;;;;;;34.65;16.35;;;;;;;0.19;63.57;100784.75;5115843;28;20043;-72
2022/03/09 03:27:50;;;;;;;33.92;17.35;;;;;;;0.12;63.72;100776.94;5115992;28;20046;-71
2022/03/09 03:30:20;;;;;;;33.03;16.48;;;;;;;0.23;63.26;100788.22;5115173;28;20431;-72
2022/03/09 03:32:51;;;;;;;31.38;16.60;;;;;;;0.17;63.45;100781.25;5115910;28;20108;-71
2022/03/09 03:35:20;;;;;;;31.20;16.60;;;;;;;0.09;63.13;100792.69;5096305;28;20059;-72
2022/03/09 03:37:48;;;;;;;29.08;15.98;;;;;;;0.14;63.59;100796.16;5115435;28;20123;-72
2022/03/09 03:40:17;;;;;;;32.03;15.98;;;;;;;0.09;63.57;100787.44;5115267;28;20035;-72
2022/03/09 03:42:45;;;;;;;28.08;16.08;;;;;;;-0.09;64.00;100780.63;5115506;28;20123;-70
2022/03/09 03:45:13;;;;;;;28.45;15.98;;;;;;;-0.17;64.27;100785.94;5115199;28;20048;-72
2022/03/09 03:47:43;;;;;;;30.77;15.90;;;;;;;-0.18;64.70;100789.44;5097209;28;20048;-71
2022/03/09 03:50:11;;;;;;;32.10;16.10;;;;;;;0.10;63.78;100790.09;5114996;28;20043;-77
2022/03/09 03:52:39;;;;;;;28.20;15.25;;;;;;;0.18;63.68;100782.13;5115405;28;20447;-71
2022/03/09 03:55:08;;;;;;;32.05;15.93;;;;;;;0.11;64.30;100783.09;5097199;28;20075;-71
2022/03/09 03:57:36;;;;;;;30.75;15.70;;;;;;;0.06;64.41;100783.09;5114797;28;20434;-75
2022/03/09 04:00:07;;;;;;;29.50;16.13;;;;;;;0.08;64.06;100788.34;5114934;28;20048;-72
2022/03/09 04:02:35;;;;;;;30.58;15.82;;;;;;;-0.03;64.55;100788.44;5114515;28;20043;-71
2022/03/09 04:05:06;;;;;;;31.73;16.58;;;;;;;0.17;64.26;100791.75;5114753;28;20047;-71
2022/03/09 04:07:35;;;;;;;34.78;17.95;;;;;;;-0.04;64.38;100784.94;5114771;28;20093;-74
2022/03/09 04:10:07;;;;;;;34.38;16.55;;;;;;;0.06;63.98;100785.72;5104834;28;20090;-73
2022/03/09 04:12:35;;;;;;;30.65;16.90;;;;;;;0.03;64.11;100777.03;5075991;28;20055;-73
2022/03/09 04:15:04;;;;;;;35.22;16.60;;;;;;;0.06;63.96;100769.13;5076284;28;20071;-73
2022/03/09 04:17:40;;;;;;;34.17;16.88;;;;;;;0.01;64.01;100778.81;5094200;28;20044;-72
2022/03/09 04:20:12;;;;;;;35.90;17.17;;;;;;;0.01;64.19;100773.56;5094314;28;20036;-73
2022/03/09 04:22:40;;;;;;;30.10;16.05;;;;;;;0.09;63.99;100783.06;5094546;28;20052;-73
2022/03/09 04:25:10;;;;;;;29.50;15.93;;;;;;;0.15;63.29;100777.78;5094475;28;20047;-72
2022/03/09 04:27:38;;;;;;;30.67;16.13;;;;;;;0.05;63.57;100784.00;5093013;28;20496;-73
2022/03/09 04:30:09;;;;;;;35.97;16.48;;;;;;;0.15;63.41;100790.91;5095950;28;20053;-74
2022/03/09 04:32:38;;;;;;;35.33;16.60;;;;;;;0.07;63.94;100784.84;5093818;28;20449;-72
2022/03/09 04:35:10;;;;;;;33.17;16.52;;;;;;;0.13;63.19;100778.69;5075927;28;20102;-72
2022/03/09 04:37:39;;;;;;;32.78;16.75;;;;;;;0.22;63.47;100774.22;5093631;28;20040;-72
2022/03/09 04:40:12;;;;;;;30.13;16.33;;;;;;;0.20;64.21;100783.00;5094074;28;20495;-73
2022/03/09 04:42:40;;;;;;;31.15;16.58;;;;;;;0.30;63.81;100776.78;5094079;28;20418;-75
2022/03/09 04:45:11;;;;;;;32.05;17.40;;;;;;;0.19;64.57;100778.59;5094019;28;20474;-73
2022/03/09 04:47:39;;;;;;;33.58;16.52;;;;;;;0.22;64.24;100789.09;5074385;28;20040;-74
2022/03/09 04:50:10;;;;;;;33.15;16.27;;;;;;;0.23;64.14;100788.22;5075549;28;20048;-75
2022/03/09 04:52:39;;;;;;;36.47;17.55;;;;;;;-0.06;65.60;100788.47;5093552;28;20477;-76
2022/03/09 04:55:08;;;;;;;35.20;16.85;;;;;;;-0.08;64.93;100788.50;5110622;28;20035;-77
2022/03/09 04:57:39;;;;;;;32.08;17.38;;;;;;;-0.14;65.46;100780.66;5095468;28;20043;-77
2022/03/09 05:00:09;;;;;;;34.92;16.70;;;;;;;-0.16;66.00;100766.69;5114108;28;20122;-77
2022/03/09 05:02:37;;;;;;;32.53;17.30;;;;;;;-0.22;66.83;100773.72;5113374;28;20449;-75
2022/03/09 05:05:07;;;;;;;34.05;16.88;;;;;;;-0.04;65.49;100776.22;5113931;28;20043;-74
2022/03/09 05:07:40;;;;;;;28.52;15.15;;;;;;;0.13;64.47;100778.69;5113468;28;20045;-75
2022/03/09 05:10:09;;;;;;;31.85;16.42;;;;;;;0.18;64.25;100774.25;5113954;28;20118;-79
2022/03/09 05:12:38;;;;;;;37.30;16.38;;;;;;;0.13;64.60;100776.06;5113439;28;20058;-75
2022/03/09 05:15:07;;;;;;;34.00;17.08;;;;;;;0.20;64.97;100772.50;5113508;28;20049;-76
2022/03/09 05:17:40;;;;;;;30.80;15.65;;;;;;;0.25;64.13;100775.94;5113151;28;20485;-76
2022/03/09 05:20:10;;;;;;;26.25;15.20;;;;;;;0.11;64.79;100780.47;5113946;28;20070;-75
2022/03/09 05:22:39;;;;;;;31.67;17.60;;;;;;;-0.01;65.25;100777.03;5112806;28;20167;-75
2022/03/09 05:25:08;;;;;;;31.67;15.48;;;;;;;0.03;65.32;100777.91;5113302;28;20485;-73
2022/03/09 05:27:38;;;;;;;34.38;16.73;;;;;;;0.09;64.55;100775.19;5098286;28;20040;-74
2022/03/09 05:30:08;;;;;;;29.38;15.30;;;;;;;0.13;64.82;100769.06;5092941;28;20048;-72
2022/03/09 05:32:39;;;;;;;30.83;16.40;;;;;;;0.05;65.06;100770.88;5093029;28;20527;-72
2022/03/09 05:35:09;;;;;;;30.55;16.73;;;;;;;0.16;64.49;100769.03;5093077;28;20048;-72
2022/03/09 05:37:43;;;;;;;;;;;;;;;0.26;64.12;100777.69;5093267;28;20072;-72
2022/03/09 05:40:12;;;;;;;30.90;15.70;;;;;;;0.10;64.42;100781.34;5093179;28;19920;-72
2022/03/09 05:42:43;;;;;;;31.92;16.52;;;;;;;0.03;64.35;100788.41;5092476;28;20378;-72
2022/03/09 05:45:16;;;;;;;29.00;15.20;;;;;;;0.12;64.53;100792.69;5093071;28;20466;-74
2022/03/09 05:47:52;;;;;;;29.08;15.45;;;;;;;0.31;63.26;100807.38;5075206;28;20374;-74
2022/03/09 05:50:20;;;;;;;28.15;14.25;;;;;;;0.31;63.25;100825.75;5092905;28;20036;-77
2022/03/09 05:52:50;;;;;;;32.13;15.13;;;;;;;0.38;62.83;100823.91;5074788;28;20048;-74
2022/03/09 05:55:19;;;;;;;35.22;15.02;;;;;;;0.27;63.33;100824.03;5093349;28;20040;-73
2022/03/09 05:57:47;;;;;;;30.27;15.45;;;;;;;0.37;62.50;100833.53;5100616;28;20066;-72
2022/03/09 06:00:16;;;;;;;29.80;15.43;;;;;;;0.36;62.80;100834.44;5089906;28;20044;-73
2022/03/09 06:02:54;;;;;;;26.60;14.70;;;;;;;0.22;63.36;100833.69;5101654;28;20104;-74
2022/03/09 06:05:23;;;;;;;31.73;15.63;;;;;;;0.38;63.34;100830.03;5100517;28;20044;-73
2022/03/09 06:07:53;;;;;;;29.38;15.35;;;;;;;0.62;62.46;100831.56;5096823;28;20093;-71
2022/03/09 06:10:21;;;;;;;30.65;14.38;;;;;;;0.53;62.55;100813.28;5116614;28;20449;-71
2022/03/09 06:12:50;;;;;;;33.08;15.57;;;;;;;0.54;62.58;100822.91;5117269;28;20040;-72
2022/03/09 06:15:18;;;;;;;31.23;15.70;;;;;;;0.61;62.72;100823.72;5098872;28;20047;-72
2022/03/09 06:17:48;;;;;;;29.05;14.60;;;;;;;0.74;62.72;100841.06;5079890;28;20051;-72
2022/03/09 06:20:18;;;;;;;29.75;14.82;;;;;;;0.74;62.60;100830.56;5096255;28;20044;-72
2022/03/09 06:22:47;;;;;;;33.45;15.63;;;;;;;0.79;62.67;100832.25;5100183;28;20458;-74
2022/03/09 06:25:17;;;;;;;29.88;15.52;;;;;;;0.81;62.66;100830.47;5098644;28;20058;-72
2022/03/09 06:27:47;;;;;;;30.00;15.52;;;;;;;0.83;62.61;100830.47;5085386;28;20052;-71
2022/03/09 06:30:16;;;;;;;31.25;16.10;;;;;;;1.02;62.57;100829.34;5096384;28;20048;-70
2022/03/09 06:32:46;;;;;;;30.65;14.13;;;;;;;1.09;61.95;100833.66;5077821;28;21035;-73
2022/03/09 06:35:15;;;;;;;31.25;15.23;;;;;;;1.22;61.70;100834.38;5092127;28;20055;-74
2022/03/09 06:37:44;;;;;;;28.90;15.18;;;;;;;1.26;61.50;100835.22;5098215;28;20130;-74
2022/03/09 06:40:13;;;;;;;28.77;14.13;;;;;;;1.20;61.35;100841.41;5116659;28;20043;-74
2022/03/09 06:42:42;;;;;;;33.38;15.50;;;;;;;1.40;60.91;100843.78;5116386;28;20138;-73
2022/03/09 06:45:11;;;;;;;24.65;14.60;;;;;;;1.43;60.85;100843.72;5116615;28;20048;-71
2022/03/09 06:47:39;;;;;;;31.40;16.20;;;;;;;1.51;60.32;100844.50;5098110;28;20108;-72
2022/03/09 06:50:11;;;;;;;30.48;16.05;;;;;;;1.68;60.08;100842.50;5116121;28;20488;-71
2022/03/09 06:52:41;;;;;;;31.15;15.95;;;;;;;1.80;59.37;100848.47;5116341;28;20039;-71
2022/03/09 06:55:12;;;;;;;27.67;15.07;;;;;;;1.89;59.71;100840.44;5098160;28;20470;-72
2022/03/09 06:57:42;;;;;;;28.23;15.13;;;;;;;2.13;58.63;100842.69;5115887;28;20396;-73
2022/03/09 07:00:12;;;;;;;33.03;15.65;;;;;;;2.07;59.25;100848.06;5098048;28;20082;-74
2022/03/09 07:02:42;;;;;;;30.65;15.00;;;;;;;2.12;58.65;100840.94;5097711;28;20073;-71
2022/03/09 07:05:11;;;;;;;30.20;14.52;;;;;;;2.36;57.72;100851.97;5097993;28;20079;-72
2022/03/09 07:07:40;;;;;;;25.50;14.15;;;;;;;2.27;57.85;100868.78;5115743;28;20044;-71
2022/03/09 07:10:12;;;;;;;28.35;13.90;;;;;;;2.30;57.99;100863.47;5114792;28;20122;-71
2022/03/09 07:12:44;;;;;;;;;;;;;;;2.47;57.16;100868.44;5098067;28;20058;-70
2022/03/09 07:15:13;;;;;;;25.33;13.43;;;;;;;2.57;56.89;100877.94;5115827;28;20369;-71
2022/03/09 07:17:42;;;;;;;26.40;14.40;;;;;;;2.39;56.97;100872.97;5097448;28;20134;-69
2022/03/09 07:20:11;;;;;;;26.60;14.02;;;;;;;2.47;56.89;100855.28;5115979;28;20043;-68
2022/03/09 07:22:39;;;;;;;26.48;14.52;;;;;;;2.54;57.14;100851.66;5097131;28;20051;-68
2022/03/09 07:25:10;;;;;;;27.85;14.68;;;;;;;2.63;57.21;100848.84;5097535;28;20051;-67
2022/03/09 07:27:39;;;;;;;28.05;13.80;;;;;;;2.76;56.81;100845.09;5097107;28;20089;-71
2022/03/09 07:30:11;;;;;;;25.65;14.15;;;;;;;2.99;56.14;100836.75;5097250;28;20047;-70
2022/03/09 07:32:42;;;;;;;27.67;14.73;;;;;;;3.00;56.18;100835.84;5097376;28;20134;-71
2022/03/09 07:35:20;;;;;;;25.52;13.93;;;;;;;3.13;55.64;100839.09;5115477;28;20039;-70
2022/03/09 07:37:50;;;;;;;26.75;14.07;;;;;;;3.10;54.94;100839.19;5115087;28;20035;-70
2022/03/09 07:40:18;;;;;;;23.23;14.23;;;;;;;3.22;54.87;100836.28;5115618;28;20056;-70
2022/03/09 07:42:47;;;;;;;26.30;13.70;;;;;;;3.25;55.41;100827.44;5097082;28;20067;-70
2022/03/09 07:45:16;;;;;;;22.08;13.30;;;;;;;3.32;54.73;100824.63;5115539;28;20046;-70
2022/03/09 07:47:44;;;;;;;26.88;13.48;;;;;;;3.25;54.39;100825.66;5115271;28;20043;-70
2022/03/09 07:50:13;;;;;;;22.95;13.57;;;;;;;3.24;55.01;100825.69;5115415;28;20126;-70
2022/03/09 07:52:41;;;;;;;24.60;13.55;;;;;;;3.34;54.52;100825.47;5114870;28;20039;-70
2022/03/09 07:55:10;;;;;;;25.35;13.68;;;;;;;3.47;53.90;100827.84;5115723;28;20476;-69
2022/03/09 07:57:39;;;;;;;27.67;13.68;;;;;;;3.68;54.02;100814.19;5114824;28;20040;-71
2022/03/09 08:00:08;;;;;;;25.85;14.05;;;;;;;3.91;53.10;100819.78;5097096;28;20055;-70
2022/03/09 08:02:38;;;;;;;25.77;13.95;;;;;;;4.01;52.49;100816.00;5115060;28;20044;-71
2022/03/09 08:05:07;;;;;;;25.85;13.73;;;;;;;4.08;52.45;100807.97;5115081;28;20043;-70
2022/03/09 08:07:35;;;;;;;24.25;13.50;;;;;;;4.09;52.64;100815.84;5114662;28;20101;-70
2022/03/09 08:10:05;;;;;;;27.65;15.32;;;;;;;4.08;52.47;100816.75;5096806;28;20066;-71
2022/03/09 08:12:34;;;;;;;25.38;15.20;;;;;;;4.17;52.63;100805.97;5096624;28;20080;-70
2022/03/09 08:15:03;;;;;;;29.50;14.27;;;;;;;4.36;51.86;100795.78;5115073;28;20043;-69
2022/03/09 08:17:32;;;;;;;26.00;13.38;;;;;;;4.38;51.68;100793.09;5114882;28;20039;-70
2022/03/09 08:20:02;;;;;;;29.90;14.63;;;;;;;4.41;51.98;100801.81;5096478;28;20054;-70
2022/03/09 08:22:31;;;;;;;27.30;14.63;;;;;;;4.36;52.07;100805.50;5096142;28;20124;-70
2022/03/09 08:24:59;;;;;;;28.15;14.45;;;;;;;4.51;51.90;100792.72;5114920;28;20043;-71
2022/03/09 08:27:28;;;;;;;27.92;14.20;;;;;;;4.66;51.28;100809.09;5096431;28;20040;-70
2022/03/09 08:29:56;;;;;;;27.15;14.52;;;;;;;4.55;51.32;100807.59;5096027;28;20100;-71
2022/03/09 08:32:24;;;;;;;28.50;14.55;;;;;;;4.73;50.77;100800.97;5096238;28;20047;-71
2022/03/09 08:34:54;;;;;;;27.15;14.73;;;;;;;4.60;51.74;100800.41;5114263;28;20043;-71
2022/03/09 08:37:23;;;;;;;24.02;13.50;;;;;;;4.68;51.08;100796.69;5114578;28;20055;-70
2022/03/09 08:39:51;;;;;;;22.25;12.93;;;;;;;4.58;50.98;100796.09;5095551;28;20385;-71
2022/03/09 08:42:20;;;;;;;22.77;13.20;;;;;;;4.67;50.95;100789.69;5095740;28;20124;-70
2022/03/09 08:44:48;;;;;;;29.25;13.45;;;;;;;4.92;50.52;100787.22;5113998;28;20044;-71
2022/03/09 08:47:19;;;;;;;26.40;14.23;;;;;;;5.13;49.89;100782.19;5096136;28;20048;-70
2022/03/09 08:49:47;;;;;;;25.77;11.88;;;;;;;5.29;48.85;100789.66;5114106;28;20039;-70
2022/03/09 08:52:16;;;;;;;23.95;12.68;;;;;;;5.30;49.16;100786.09;5114096;28;20070;-70
2022/03/09 08:54:45;;;;;;;21.88;12.68;;;;;;;5.49;48.52;100781.97;5113610;28;20512;-71
2022/03/09 08:57:14;;;;;;;20.23;12.68;;;;;;;5.61;48.63;100784.25;5114228;28;20437;-70
2022/03/09 08:59:44;;;;;;;21.65;12.00;;;;;;;5.52;48.12;100778.38;5113527;28;20536;-70
2022/03/09 09:02:12;;;;;;;17.33;10.13;;;;;;;5.58;47.98;100770.25;5113712;28;20067;-70
2022/03/09 09:04:41;;;;;;;20.27;11.18;;;;;;;5.58;47.99;100775.53;5113593;28;20388;-70
2022/03/09 09:07:09;;;;;;;17.23;9.50;;;;;;;5.89;47.24;100764.84;5095729;28;20052;-70
2022/03/09 09:09:37;;;;;;;17.00;9.32;;;;;;;5.95;47.10;100770.81;5095403;28;20048;-71
2022/03/09 09:12:08;;;;;;;15.93;9.82;;;;;;;6.13;46.71;100764.06;5095845;28;20130;-70
2022/03/09 09:14:36;;;;;;;19.23;9.95;;;;;;;5.95;47.30;100764.66;5095690;28;20104;-70
2022/03/09 09:17:04;;;;;;;15.77;9.20;;;;;;;6.01;46.85;100770.63;5095618;28;20400;-69
2022/03/09 09:19:53;;;;;;;17.67;9.77;;;;;;;5.88;46.88;100769.25;5095472;28;20051;-69
2022/03/09 09:22:21;;;;;;;15.43;9.60;;;;;;;5.75;47.34;100763.50;5095324;28;20068;-70
2022/03/09 09:24:50;;;;;;;19.98;10.88;;;;;;;5.75;47.92;100773.22;5095128;28;20078;-70
2022/03/09 09:27:22;;;;;;;21.13;12.20;;;;;;;5.65;48.31;100775.28;5095421;28;20229;-70
2022/03/09 09:30:11;;;;;;;20.40;11.93;;;;;;;5.58;48.67;100771.09;5113836;28;20133;-70
2022/03/09 09:32:40;;;;;;;22.58;12.45;;;;;;;5.61;49.12;100776.31;5112733;28;20127;-71
2022/03/09 09:35:10;;;;;;;22.65;13.60;;;;;;;5.66;49.10;100773.50;5113508;28;20184;-70
2022/03/09 09:37:38;;;;;;;23.98;12.77;;;;;;;5.90;48.85;100772.78;5095500;28;20047;-70
2022/03/09 09:40:08;;;;;;;20.58;11.35;;;;;;;6.16;48.17;100763.94;5095316;28;20075;-70
2022/03/09 09:42:38;;;;;;;22.95;11.15;;;;;;;6.31;47.65;100766.09;5095085;28;20138;-70
2022/03/09 09:45:22;;;;;;;18.30;10.32;;;;;;;6.13;47.57;100769.34;5095391;28;20044;-69
2022/03/09 09:47:53;;;;;;;22.88;13.27;;;;;;;5.92;47.96;100759.47;5113189;28;20134;-70
2022/03/09 09:50:22;;;;;;;20.58;11.88;;;;;;;6.08;48.36;100758.06;5113395;28;20043;-70
2022/03/09 09:52:52;;;;;;;18.98;10.63;;;;;;;6.13;48.11;100769.34;5094989;28;20063;-70
2022/03/09 09:55:20;;;;;;;21.40;12.23;;;;;;;6.16;48.23;100758.66;5094875;28;20142;-70
2022/03/09 09:57:50;;;;;;;20.63;11.90;;;;;;;6.19;48.26;100758.56;5094991;28;20052;-69
2022/03/09 10:00:18;;;;;;;21.50;12.20;;;;;;;6.21;47.96;100759.38;5113050;28;20040;-70
2022/03/09 10:02:48;;;;;;;22.33;12.02;;;;;;;6.43;48.13;100758.63;5112963;28;20036;-70
2022/03/09 10:05:18;;;;;;;22.88;12.38;;;;;;;6.30;48.31;100756.41;5094839;28;20047;-70
2022/03/09 10:08:10;;;;;;;21.88;12.15;;;;;;;6.36;48.33;100765.91;5094951;28;20047;-71
2022/03/09 10:10:40;;;;;;;23.33;11.40;;;;;;;6.32;48.29;100759.00;5095159;28;20385;-69
2022/03/09 10:13:15;;;;;;;16.83;9.38;;;;;;;6.46;47.52;100759.38;5095112;28;20048;-71
2022/03/09 10:15:45;;;;;;;16.83;9.73;;;;;;;6.40;47.76;100754.31;5094863;28;20051;-71
2022/03/09 10:18:16;;;;;;;15.55;9.40;;;;;;;6.53;47.63;100762.69;5113337;28;20043;-70
2022/03/09 10:20:45;;;;;;;15.30;9.48;;;;;;;6.41;47.54;100752.50;5094790;28;20058;-70
2022/03/09 10:23:14;;;;;;;14.43;9.40;;;;;;;6.55;47.46;100745.78;5094869;28;20055;-70
2022/03/09 10:25:43;;;;;;;14.23;9.30;;;;;;;6.68;47.10;100745.38;5112813;28;20464;-79
2022/03/09 10:28:13;;;;;;;18.17;9.85;;;;;;;6.62;47.51;100741.13;5113027;28;20071;-70
2022/03/09 10:30:45;;;;;;;17.13;9.80;;;;;;;6.64;47.54;100735.78;5112571;28;20058;-70
2022/03/09 10:33:14;;;;;;;15.80;9.05;;;;;;;6.81;47.24;100744.00;5094716;28;20459;-70
2022/03/09 10:35:45;;;;;;;14.55;9.70;;;;;;;6.73;47.24;100731.00;5094809;28;20142;-71
2022/03/09 10:38:32;;;;;;;14.98;9.88;;;;;;;6.64;47.38;100722.53;5113029;28;20078;-70
2022/03/09 10:41:05;;;;;;;16.42;8.98;;;;;;;6.81;47.08;100726.28;5094256;28;20492;-69
2022/03/09 10:43:38;;;;;;;14.52;9.05;;;;;;;6.62;47.32;100706.69;5113567;28;20051;-70
2022/03/09 10:46:09;;;;;;;17.45;9.90;;;;;;;6.63;47.36;100705.75;5098242;28;20111;-70
2022/03/09 10:48:53;;;;;;;17.75;10.90;;;;;;;6.69;47.64;100715.28;5116835;28;20039;-70
2022/03/09 10:51:30;;;;;;;19.42;11.52;;;;;;;6.72;47.77;100715.16;5116450;28;20104;-70
2022/03/09 10:54:00;;;;;;;16.95;10.55;;;;;;;6.78;47.95;100709.66;5099041;28;20043;-70
2022/03/09 10:56:29;;;;;;;19.63;11.48;;;;;;;6.71;48.17;100708.13;5116861;28;20051;-70
2022/03/09 10:59:09;;;;;;;18.67;11.07;;;;;;;6.78;48.37;100694.59;5116287;28;20048;-70
2022/03/09 11:01:38;;;;;;;16.80;8.90;;;;;;;7.01;48.25;100696.38;5116554;28;20469;-70
2022/03/09 11:04:16;;;;;;;19.08;11.27;;;;;;;6.82;48.65;100685.59;5097965;28;20051;-70
2022/03/09 11:06:57;;;;;;;18.13;11.45;;;;;;;6.88;48.25;100685.38;5098555;28;20086;-70
2022/03/09 11:09:25;;;;;;;18.92;10.73;;;;;;;6.95;47.78;100695.72;5116415;28;20092;-70
2022/03/09 11:11:55;;;;;;;19.85;10.57;;;;;;;6.89;48.43;100675.63;5116018;28;20480;-70
2022/03/09 11:14:30;;;;;;;20.10;12.10;;;;;;;6.93;48.73;100676.38;5097803;28;20126;-70
2022/03/09 11:17:01;;;;;;;18.52;11.00;;;;;;;7.10;48.52;100681.88;5116002;28;20063;-69
2022/03/09 11:19:30;;;;;;;18.10;10.45;;;;;;;7.09;48.51;100678.38;5116734;28;20047;-70
2022/03/09 11:22:01;;;;;;;19.95;11.85;;;;;;;7.25;48.17;100675.13;5097441;28;20061;-70
2022/03/09 11:24:33;;;;;;;20.75;11.50;;;;;;;7.40;48.39;100678.00;5097836;28;20523;-70
2022/03/09 11:27:04;;;;;;;19.45;11.45;;;;;;;7.32;48.47;100660.66;5115856;28;20054;-70
2022/03/09 11:29:36;;;;;;;16.73;10.82;;;;;;;7.31;47.44;100670.41;5097780;28;20051;-70
2022/03/09 11:32:09;;;;;;;17.52;10.45;;;;;;;7.30;48.16;100670.47;5115666;28;20046;-70